Pagrindinis puslapis
METAR-TAF:

METAR-TAF

Oro uostai :

Anaktuvuk Pass, Aliaska, Jungtinės Amerikos Valstijos

platuma: 68-08-01N, ilguma: 151-44-36W, Aukštis: 641 m

Dabartinis oras

Ataskaita buvo paskelbta 13 minutes, ne 19:56 UTC
Vėjas 5 kt iš Pietų/Pietvakarių
Temperatūra -13°C
Drėgmė 78%
Slėgis 1014 hPa
Matomumas: 16.1 km
Mažai debesys ne aukštis 2600 ft
Apsiniaukę ne aukštis 4600 ft

METAR: PAKP 281956Z AUTO 21005KT 10SM FEW026 OVC046 M13/M16 A2994 RMK AO2 SLP210 T11281156 FZRANO

Laikas: 12:09 (20:09 UTC)


TAF: trūkstamas

Orai ataskaitas ir orų prognozės (METAR, TAF).

turimą stotys yra geltonos ir raudonos taškus žemėlapyje.

Perkelti pele per norėdami pamatyti stoties vardą.

Tada spustelėkite, norėdami matyti oro stebėjimo ir prognozės.

Norėdami pakeisti žemėlapį: spustelėkite ant žalios mygtukų su juodo kryžiaus žemyn,; žalią mygtuką su brūkšneliu, jei norite nutolinti; arba žalių rodyklių gretimoms žemėlapius.


METAR-TAF: